createdAt,value
2023-01-28T00:01:46.803Z,17.10
2023-01-28T00:04:16.548Z,18.63
2023-01-28T00:06:44.558Z,18.40
2023-01-28T00:09:13.256Z,18.30
2023-01-28T00:11:41.230Z,18.47
2023-01-28T00:14:09.321Z,17.13
2023-01-28T00:16:37.321Z,16.80
2023-01-28T00:19:05.464Z,17.13
2023-01-28T00:21:35.239Z,17.27
2023-01-28T00:24:03.338Z,17.33
2023-01-28T00:26:31.298Z,16.33
2023-01-28T00:28:59.218Z,16.63
2023-01-28T00:31:28.292Z,16.80
2023-01-28T00:33:57.756Z,16.10
2023-01-28T00:36:27.310Z,16.50
2023-01-28T00:38:58.739Z,16.87
2023-01-28T00:41:28.734Z,16.47
2023-01-28T00:43:59.705Z,16.17
2023-01-28T00:46:27.930Z,16.47
2023-01-28T00:48:55.962Z,16.07
2023-01-28T00:51:24.215Z,16.27
2023-01-28T00:53:52.959Z,17.60
2023-01-28T00:56:22.292Z,16.47
2023-01-28T00:58:50.428Z,15.90
2023-01-28T01:01:21.674Z,16.13
2023-01-28T01:03:57.384Z,15.10
2023-01-28T01:06:26.436Z,14.83
2023-01-28T01:08:54.373Z,15.70
2023-01-28T01:11:24.756Z,15.30
2023-01-28T01:13:54.913Z,14.27
2023-01-28T01:16:24.197Z,14.70
2023-01-28T01:18:52.965Z,15.37
2023-01-28T01:21:22.703Z,14.27
2023-01-28T01:23:50.914Z,14.13
2023-01-28T01:26:19.344Z,15.50
2023-01-28T01:28:49.092Z,14.30
2023-01-28T01:31:18.684Z,14.80
2023-01-28T01:33:48.833Z,14.70
2023-01-28T01:36:19.585Z,14.43
2023-01-28T01:38:47.696Z,15.00
2023-01-28T01:41:24.596Z,15.43
2023-01-28T01:43:55.847Z,13.80
2023-01-28T01:46:31.709Z,13.57
2023-01-28T01:49:05.374Z,13.50
2023-01-28T01:51:35.529Z,13.60
2023-01-28T01:54:05.339Z,13.43
2023-01-28T01:56:39.594Z,13.67
2023-01-28T01:59:12.126Z,12.40
2023-01-28T02:01:40.734Z,13.23
2023-01-28T02:04:14.859Z,13.17
2023-01-28T02:06:43.460Z,12.83
2023-01-28T02:09:24.769Z,13.07
2023-01-28T02:11:54.931Z,12.33
2023-01-28T02:14:30.828Z,12.83
2023-01-28T02:16:59.980Z,12.30
2023-01-28T02:19:34.887Z,12.30
2023-01-28T02:22:20.967Z,13.63
2023-01-28T02:25:22.397Z,12.50
2023-01-28T02:28:14.863Z,15.20
2023-01-28T02:30:50.906Z,17.53
2023-01-28T02:33:26.845Z,19.30
2023-01-28T02:35:55.911Z,16.47
2023-01-28T02:38:30.070Z,15.63
2023-01-28T02:41:06.871Z,14.67
2023-01-28T02:43:38.140Z,15.07
2023-01-28T02:46:35.776Z,14.90
2023-01-28T02:49:06.138Z,15.13
2023-01-28T02:51:46.921Z,14.47
2023-01-28T02:54:26.145Z,15.13
2023-01-28T02:57:00.515Z,15.03
2023-01-28T02:59:36.996Z,14.90
2023-01-28T03:02:16.536Z,14.27
2023-01-28T03:04:51.391Z,14.60
2023-01-28T03:07:20.863Z,11.67
2023-01-28T03:09:51.178Z,14.10
2023-01-28T03:12:40.927Z,13.77
2023-01-28T03:15:32.672Z,15.00
2023-01-28T03:18:22.237Z,15.03
2023-01-28T03:21:13.808Z,14.60
2023-01-28T03:24:07.205Z,13.93
2023-01-28T03:26:57.687Z,13.80
2023-01-28T03:29:44.855Z,14.43
2023-01-28T03:32:34.669Z,15.00
2023-01-28T03:35:20.676Z,14.27
2023-01-28T03:37:48.785Z,13.67
2023-01-28T03:40:22.913Z,13.43
2023-01-28T03:42:52.259Z,13.87
2023-01-28T03:45:30.777Z,13.23
2023-01-28T03:48:00.014Z,14.20
2023-01-28T03:50:27.940Z,14.17
2023-01-28T03:53:13.543Z,13.47
2023-01-28T03:55:53.250Z,14.03
2023-01-28T03:58:23.367Z,14.17
2023-01-28T04:00:52.327Z,13.47
2023-01-28T04:03:22.624Z,13.60
2023-01-28T04:06:04.734Z,13.43
2023-01-28T04:08:53.110Z,13.43
2023-01-28T04:11:44.171Z,12.60
2023-01-28T04:14:16.527Z,14.13
2023-01-28T04:17:11.054Z,13.13
2023-01-28T04:19:41.817Z,13.00
2023-01-28T04:22:12.500Z,13.13
2023-01-28T04:24:42.059Z,13.53
2023-01-28T04:27:10.286Z,13.20
2023-01-28T04:29:38.219Z,14.67
2023-01-28T04:32:35.948Z,12.67
2023-01-28T04:35:28.474Z,13.03
2023-01-28T04:38:08.645Z,12.80
2023-01-28T04:40:51.113Z,14.20
2023-01-28T04:43:28.025Z,13.50
2023-01-28T04:46:14.450Z,12.27
2023-01-28T04:48:49.257Z,13.50
2023-01-28T04:51:33.802Z,13.60
2023-01-28T04:54:14.172Z,13.13
2023-01-28T04:56:42.301Z,12.07
2023-01-28T04:59:11.051Z,13.33
2023-01-28T05:01:40.018Z,12.53
2023-01-28T05:04:09.814Z,13.13
2023-01-28T05:06:41.164Z,14.30
2023-01-28T05:09:16.332Z,13.47
2023-01-28T05:11:45.021Z,13.27
2023-01-28T05:14:14.347Z,12.03
2023-01-28T05:16:46.695Z,11.60
2023-01-28T05:19:15.981Z,12.57
2023-01-28T05:21:48.233Z,12.33
2023-01-28T05:24:25.023Z,12.03
2023-01-28T05:26:53.010Z,12.77
2023-01-28T05:29:20.956Z,12.27
2023-01-28T05:31:49.729Z,11.70
2023-01-28T05:34:18.122Z,12.20
2023-01-28T05:36:47.821Z,13.27
2023-01-28T05:39:29.769Z,11.70
2023-01-28T05:41:58.208Z,12.97
2023-01-28T05:44:26.236Z,13.33
2023-01-28T05:47:12.634Z,12.87
2023-01-28T05:49:52.653Z,13.57
2023-01-28T05:52:45.858Z,13.10
2023-01-28T05:55:22.255Z,14.00
2023-01-28T05:57:50.257Z,12.63
2023-01-28T06:00:21.622Z,13.73
2023-01-28T06:02:51.805Z,13.77
2023-01-28T06:05:20.993Z,14.93
2023-01-28T06:07:51.696Z,14.90
2023-01-28T06:10:19.640Z,13.77
2023-01-28T06:12:48.266Z,13.03
2023-01-28T06:15:35.755Z,18.60
2023-01-28T06:18:13.496Z,17.50
2023-01-28T06:20:43.123Z,16.33
2023-01-28T06:23:12.737Z,15.57
2023-01-28T06:25:40.732Z,16.00
2023-01-28T06:28:12.162Z,15.80
2023-01-28T06:30:40.141Z,17.67
2023-01-28T06:33:08.176Z,18.73
2023-01-28T06:35:37.099Z,16.53
2023-01-28T06:38:05.130Z,15.70
2023-01-28T06:40:34.438Z,15.87
2023-01-28T06:43:02.361Z,16.30
2023-01-28T06:45:30.279Z,16.07
2023-01-28T06:47:58.257Z,16.63
2023-01-28T06:50:26.187Z,15.80
2023-01-28T06:52:54.048Z,16.67
2023-01-28T06:55:21.920Z,17.40
2023-01-28T06:57:51.171Z,17.57
2023-01-28T07:00:20.165Z,16.70
2023-01-28T07:02:48.072Z,17.77
2023-01-28T07:05:16.124Z,16.83
2023-01-28T07:07:44.805Z,16.27
2023-01-28T07:10:13.244Z,16.83
2023-01-28T07:12:41.440Z,18.37
2023-01-28T07:15:11.927Z,17.53
2023-01-28T07:17:41.320Z,17.10
2023-01-28T07:20:11.500Z,17.43
2023-01-28T07:22:41.145Z,16.47
2023-01-28T07:25:10.753Z,18.10
2023-01-28T07:27:38.690Z,18.00
2023-01-28T07:30:07.919Z,19.10
2023-01-28T07:32:37.190Z,20.03
2023-01-28T07:35:05.523Z,19.77
2023-01-28T07:37:33.505Z,18.27
2023-01-28T07:40:01.534Z,19.27
2023-01-28T07:42:29.536Z,18.70
2023-01-28T07:44:57.617Z,18.90
2023-01-28T07:47:25.544Z,18.10
2023-01-28T07:49:54.841Z,16.87
2023-01-28T07:52:22.787Z,16.53
2023-01-28T07:54:50.723Z,16.03
2023-01-28T07:57:23.244Z,15.73
2023-01-28T07:59:51.728Z,17.00
2023-01-28T08:02:20.081Z,15.57
2023-01-28T08:04:48.184Z,15.63
2023-01-28T08:07:18.482Z,15.93
2023-01-28T08:09:46.391Z,16.53
2023-01-28T08:12:14.439Z,18.20
2023-01-28T08:14:42.386Z,16.77
2023-01-28T08:17:10.389Z,16.90
2023-01-28T08:19:38.267Z,17.70
2023-01-28T08:22:06.204Z,17.47
2023-01-28T08:24:35.493Z,17.30
2023-01-28T08:27:04.140Z,17.40
2023-01-28T08:29:32.056Z,17.23
2023-01-28T08:32:00.078Z,15.83
2023-01-28T08:34:27.977Z,16.63
2023-01-28T08:36:55.880Z,16.90
2023-01-28T08:39:23.821Z,17.47
2023-01-28T08:41:53.076Z,17.70
2023-01-28T08:44:21.045Z,17.63
2023-01-28T08:46:49.003Z,19.50
2023-01-28T08:49:16.884Z,18.80
2023-01-28T08:51:44.796Z,18.50
2023-01-28T08:54:12.783Z,18.60
2023-01-28T08:56:42.978Z,18.47
2023-01-28T08:59:12.574Z,18.30
2023-01-28T09:01:40.558Z,18.73
2023-01-28T09:04:08.517Z,19.23
2023-01-28T09:06:36.471Z,18.33
2023-01-28T09:09:04.593Z,18.23
2023-01-28T09:11:32.582Z,19.00
2023-01-28T09:14:00.665Z,20.27
2023-01-28T09:16:30.187Z,18.80
2023-01-28T09:18:58.230Z,18.97
2023-01-28T09:21:26.123Z,19.40
2023-01-28T09:23:55.784Z,19.20
2023-01-28T09:26:23.779Z,17.97
2023-01-28T09:28:51.714Z,18.43
2023-01-28T09:31:19.720Z,17.07
2023-01-28T09:33:54.825Z,19.07
2023-01-28T09:36:22.737Z,17.17
2023-01-28T09:38:50.775Z,17.63
2023-01-28T09:41:26.739Z,18.80
2023-01-28T09:44:09.176Z,19.60
2023-01-28T09:46:39.030Z,19.00
2023-01-28T09:49:20.074Z,20.67
2023-01-28T09:51:52.859Z,19.07
2023-01-28T09:54:29.222Z,23.67
2023-01-28T09:57:05.767Z,20.00
2023-01-28T09:59:36.619Z,17.47
2023-01-28T10:02:21.831Z,18.37
2023-01-28T10:04:59.589Z,17.13
2023-01-28T10:07:37.358Z,19.53
2023-01-28T10:10:14.404Z,19.70
2023-01-28T10:13:01.410Z,18.97
2023-01-28T10:16:08.664Z,18.17
2023-01-28T10:18:41.071Z,18.80
2023-01-28T10:21:16.699Z,18.07
2023-01-28T10:23:54.001Z,16.57
2023-01-28T10:26:25.017Z,18.20
2023-01-28T10:28:57.228Z,18.20
2023-01-28T10:31:31.281Z,16.17
2023-01-28T10:34:00.226Z,17.80
2023-01-28T10:36:30.162Z,17.33
2023-01-28T10:38:58.304Z,18.37
2023-01-28T10:41:26.886Z,18.13
2023-01-28T10:43:54.947Z,18.37
2023-01-28T10:46:28.033Z,18.80
2023-01-28T10:49:00.980Z,18.27
2023-01-28T10:51:35.687Z,19.70
2023-01-28T10:54:04.246Z,19.07
2023-01-28T10:56:35.720Z,19.63
2023-01-28T10:59:05.286Z,20.03
2023-01-28T11:01:45.491Z,20.10
2023-01-28T11:04:20.226Z,19.80
2023-01-28T11:06:58.331Z,20.93
2023-01-28T11:09:30.869Z,21.20
2023-01-28T11:11:59.666Z,20.63
2023-01-28T11:14:28.486Z,19.90
2023-01-28T11:16:59.037Z,20.33
2023-01-28T11:19:36.462Z,20.27
2023-01-28T11:22:05.810Z,19.27
2023-01-28T11:24:34.984Z,18.87
2023-01-28T11:27:16.696Z,19.37
2023-01-28T11:29:45.345Z,18.20
2023-01-28T11:32:20.817Z,18.37
2023-01-28T11:34:53.678Z,18.93
2023-01-28T11:37:24.716Z,19.30
2023-01-28T11:40:02.895Z,18.53
2023-01-28T11:42:32.038Z,17.30
2023-01-28T11:44:59.956Z,18.87
2023-01-28T11:47:42.193Z,19.13
2023-01-28T11:50:25.377Z,19.90
2023-01-28T11:53:08.932Z,18.17
2023-01-28T11:55:50.579Z,18.30
2023-01-28T11:58:24.940Z,18.70
2023-01-28T12:01:03.539Z,19.00
2023-01-28T12:03:53.768Z,17.03
2023-01-28T12:06:47.236Z,17.87
2023-01-28T12:09:26.540Z,16.00
2023-01-28T12:12:14.763Z,17.03
2023-01-28T12:15:05.035Z,17.10
2023-01-28T12:17:45.307Z,17.50
2023-01-28T12:20:20.799Z,17.80
2023-01-28T12:23:12.878Z,17.50
2023-01-28T12:25:54.892Z,17.83
2023-01-28T12:28:38.743Z,16.63
2023-01-28T12:31:21.566Z,16.27
2023-01-28T12:34:05.237Z,16.80
2023-01-28T12:36:45.226Z,16.43
2023-01-28T12:39:23.612Z,18.83
2023-01-28T12:42:00.448Z,19.17
2023-01-28T12:44:33.935Z,18.93
2023-01-28T12:47:07.063Z,17.07
2023-01-28T12:49:40.220Z,16.43
2023-01-28T12:52:15.432Z,16.17
2023-01-28T12:54:54.654Z,16.83
2023-01-28T12:57:27.376Z,16.63
2023-01-28T13:00:04.274Z,17.17
2023-01-28T13:02:39.255Z,16.40
2023-01-28T13:05:12.909Z,17.83
2023-01-28T13:07:45.099Z,18.80
2023-01-28T13:10:20.791Z,18.40
2023-01-28T13:12:51.003Z,18.83
2023-01-28T13:15:20.859Z,18.63
2023-01-28T13:17:57.803Z,18.07
2023-01-28T13:20:36.619Z,18.03
2023-01-28T13:23:07.516Z,18.37
2023-01-28T13:25:36.222Z,17.17
2023-01-28T13:28:07.502Z,17.27
2023-01-28T13:30:47.991Z,17.37
2023-01-28T13:33:31.337Z,18.43
2023-01-28T13:36:02.567Z,17.67
2023-01-28T13:38:31.733Z,18.00
2023-01-28T13:41:06.279Z,17.80
2023-01-28T13:43:41.496Z,17.73
2023-01-28T13:46:12.051Z,15.10
2023-01-28T13:48:44.029Z,16.20
2023-01-28T13:51:20.477Z,15.63
2023-01-28T13:53:54.640Z,16.07
2023-01-28T13:56:26.617Z,16.50
2023-01-28T13:59:26.803Z,17.13
2023-01-28T14:02:34.623Z,16.47
2023-01-28T14:05:33.015Z,14.87
2023-01-28T14:08:36.273Z,16.10
2023-01-28T14:11:18.596Z,16.30
2023-01-28T14:14:05.394Z,15.73
2023-01-28T14:16:43.096Z,17.30
2023-01-28T14:19:14.399Z,17.53
2023-01-28T14:21:42.610Z,16.40
2023-01-28T14:24:17.854Z,16.70
2023-01-28T14:26:56.882Z,17.27
2023-01-28T14:29:39.591Z,18.27
2023-01-28T14:32:13.905Z,18.63
2023-01-28T14:34:43.604Z,18.63
2023-01-28T14:37:15.138Z,19.67
2023-01-28T14:39:46.995Z,20.83
2023-01-28T14:42:21.350Z,21.27
2023-01-28T14:44:58.273Z,18.53
2023-01-28T14:47:48.852Z,18.23
2023-01-28T14:50:34.415Z,19.40
2023-01-28T14:53:26.338Z,19.63
2023-01-28T14:56:00.143Z,19.40
2023-01-28T14:58:32.617Z,21.37
2023-01-28T15:01:01.902Z,21.57
2023-01-28T15:03:31.802Z,21.40
2023-01-28T15:06:05.129Z,19.97
2023-01-28T15:08:33.322Z,20.87
2023-01-28T15:11:03.096Z,20.90
2023-01-28T15:13:35.140Z,22.13
2023-01-28T15:16:03.215Z,23.57
2023-01-28T15:18:36.185Z,22.87
2023-01-28T15:21:05.438Z,23.30
2023-01-28T15:23:36.279Z,22.40
2023-01-28T15:26:07.256Z,23.00
2023-01-28T15:28:38.424Z,21.40
2023-01-28T15:31:07.199Z,20.10
2023-01-28T15:33:36.604Z,15.10
2023-01-28T15:36:06.300Z,13.03
2023-01-28T15:38:34.308Z,12.40
2023-01-28T15:41:06.375Z,14.70
2023-01-28T15:43:37.277Z,15.30
2023-01-28T15:46:11.441Z,17.47
2023-01-28T15:48:43.625Z,13.53
2023-01-28T15:51:21.055Z,12.40
2023-01-28T15:53:52.953Z,15.07
2023-01-28T15:56:27.655Z,17.00
2023-01-28T15:58:56.266Z,14.87
2023-01-28T16:01:25.538Z,14.97
2023-01-28T16:04:06.530Z,15.03
2023-01-28T16:06:38.305Z,15.87
2023-01-28T16:09:08.325Z,14.43
2023-01-28T16:11:44.540Z,16.03
2023-01-28T16:14:23.779Z,15.37
2023-01-28T16:16:52.496Z,15.43
2023-01-28T16:19:34.182Z,16.40
2023-01-28T16:22:02.855Z,16.03
2023-01-28T16:24:33.246Z,14.27
2023-01-28T16:27:02.959Z,13.47
2023-01-28T16:29:32.635Z,14.00
2023-01-28T16:32:01.338Z,13.77
2023-01-28T16:34:30.781Z,14.37
2023-01-28T16:37:00.064Z,14.87
2023-01-28T16:39:28.279Z,15.53
2023-01-28T16:41:56.901Z,15.23
2023-01-28T16:44:24.913Z,16.17
2023-01-28T16:46:52.902Z,15.60
2023-01-28T16:49:21.268Z,14.77
2023-01-28T16:51:50.629Z,13.73
2023-01-28T16:54:18.816Z,15.00
2023-01-28T16:56:47.219Z,15.90
2023-01-28T16:59:17.250Z,16.53
2023-01-28T17:01:45.711Z,15.77
2023-01-28T17:04:13.898Z,16.87
2023-01-28T17:06:44.321Z,16.23
2023-01-28T17:09:15.686Z,16.07
2023-01-28T17:11:43.895Z,17.37
2023-01-28T17:14:12.659Z,18.87
2023-01-28T17:16:40.793Z,34.13
2023-01-28T17:19:08.839Z,20.27
2023-01-28T17:21:36.882Z,18.87
2023-01-28T17:24:05.942Z,18.17
2023-01-28T17:26:36.599Z,14.83
2023-01-28T17:29:05.786Z,15.07
2023-01-28T17:31:34.167Z,14.83
2023-01-28T17:34:02.552Z,16.57
2023-01-28T17:36:30.624Z,15.37
2023-01-28T17:38:58.618Z,16.77
2023-01-28T17:41:26.711Z,26.53
2023-01-28T17:43:57.151Z,19.27
2023-01-28T17:46:26.383Z,16.90
2023-01-28T17:48:54.872Z,16.83
2023-01-28T17:51:23.130Z,18.67
2023-01-28T17:53:53.378Z,21.07
2023-01-28T17:56:23.777Z,19.43
2023-01-28T17:58:52.793Z,19.47
2023-01-28T18:01:23.016Z,19.13
2023-01-28T18:03:51.046Z,17.37
2023-01-28T18:06:19.811Z,17.53
2023-01-28T18:08:48.377Z,15.33
2023-01-28T18:11:18.256Z,14.57
2023-01-28T18:13:46.243Z,17.93
2023-01-28T18:16:18.002Z,16.07
2023-01-28T18:18:47.807Z,11.40
2023-01-28T18:21:22.746Z,9.80
2023-01-28T18:23:53.866Z,9.00
2023-01-28T18:26:23.803Z,8.17
2023-01-28T18:28:52.029Z,8.57
2023-01-28T18:31:20.462Z,9.37
2023-01-28T18:33:49.999Z,10.20
2023-01-28T18:36:18.021Z,9.73
2023-01-28T18:38:46.492Z,11.50
2023-01-28T18:41:15.577Z,10.53
2023-01-28T18:43:43.927Z,10.40
2023-01-28T18:46:14.492Z,10.27
2023-01-28T18:48:42.470Z,10.03
2023-01-28T18:51:28.410Z,9.87
2023-01-28T18:53:59.536Z,9.20
2023-01-28T18:56:27.971Z,24.60
2023-01-28T18:58:57.250Z,14.07
2023-01-28T19:01:25.591Z,12.07
2023-01-28T19:03:54.787Z,11.83
2023-01-28T19:06:24.805Z,10.17
2023-01-28T19:08:54.466Z,13.43
2023-01-28T19:11:23.259Z,10.80
2023-01-28T19:13:51.640Z,10.80
2023-01-28T19:16:20.364Z,9.97
2023-01-28T19:18:54.669Z,10.47
2023-01-28T19:21:25.242Z,8.47
2023-01-28T19:23:57.582Z,8.67
2023-01-28T19:26:26.902Z,8.60
2023-01-28T19:28:55.056Z,8.93
2023-01-28T19:31:24.657Z,7.97
2023-01-28T19:33:56.255Z,8.00
2023-01-28T19:36:27.200Z,10.50
2023-01-28T19:38:58.237Z,8.57
2023-01-28T19:41:26.541Z,8.70
2023-01-28T19:43:54.491Z,7.70
2023-01-28T19:46:22.715Z,6.90
2023-01-28T19:48:50.865Z,6.97
2023-01-28T19:51:19.141Z,6.87
2023-01-28T19:53:51.316Z,7.40
2023-01-28T19:56:20.889Z,7.80
2023-01-28T19:58:48.988Z,8.10
2023-01-28T20:01:19.646Z,8.60
2023-01-28T20:03:52.750Z,9.77
2023-01-28T20:06:20.931Z,8.87
2023-01-28T20:08:54.709Z,8.90
2023-01-28T20:11:23.285Z,9.43
2023-01-28T20:13:52.661Z,9.23
2023-01-28T20:16:23.229Z,10.40
2023-01-28T20:18:52.004Z,9.57
2023-01-28T20:21:20.712Z,9.97
2023-01-28T20:23:49.710Z,9.53
2023-01-28T20:26:21.568Z,10.17
2023-01-28T20:28:49.921Z,9.10
2023-01-28T20:31:18.846Z,10.10
2023-01-28T20:33:47.214Z,9.57
2023-01-28T20:36:15.657Z,9.17
2023-01-28T20:38:45.217Z,7.93
2023-01-28T20:41:15.884Z,7.77
2023-01-28T20:43:46.227Z,8.33
2023-01-28T20:46:15.700Z,8.50
2023-01-28T20:48:44.135Z,9.33
2023-01-28T20:51:15.175Z,9.67
2023-01-28T20:53:45.637Z,9.47
2023-01-28T20:56:16.010Z,9.20
2023-01-28T20:58:45.959Z,9.90
2023-01-28T21:01:21.000Z,8.57
2023-01-28T21:03:49.443Z,8.97
2023-01-28T21:06:18.263Z,8.47
2023-01-28T21:08:46.917Z,7.43
2023-01-28T21:11:15.479Z,8.40
2023-01-28T21:13:44.719Z,7.60
2023-01-28T21:16:12.864Z,8.30
2023-01-28T21:18:41.023Z,8.17
2023-01-28T21:21:14.738Z,7.73
2023-01-28T21:23:42.842Z,7.90
2023-01-28T21:26:11.670Z,7.13
2023-01-28T21:28:39.741Z,8.13
2023-01-28T21:31:10.728Z,7.67
2023-01-28T21:33:39.227Z,8.23
2023-01-28T21:36:12.273Z,7.87
2023-01-28T21:38:40.625Z,8.70
2023-01-28T21:41:09.122Z,8.57
2023-01-28T21:43:37.377Z,9.00
2023-01-28T21:46:06.077Z,9.97
2023-01-28T21:48:35.466Z,8.80
2023-01-28T21:51:25.054Z,9.37
2023-01-28T21:53:53.189Z,8.67
2023-01-28T21:56:21.759Z,7.93
2023-01-28T21:59:07.957Z,7.77
2023-01-28T22:01:35.996Z,10.83
2023-01-28T22:04:05.636Z,9.30
2023-01-28T22:06:33.629Z,10.63
2023-01-28T22:09:02.405Z,10.53
2023-01-28T22:11:30.389Z,8.93
2023-01-28T22:13:58.334Z,8.33
2023-01-28T22:16:26.301Z,9.83
2023-01-28T22:18:54.224Z,9.40
2023-01-28T22:21:23.556Z,10.53
2023-01-28T22:23:51.446Z,13.43
2023-01-28T22:26:19.416Z,17.77
2023-01-28T22:28:47.403Z,11.03
2023-01-28T22:31:17.123Z,9.10
2023-01-28T22:33:45.512Z,6.67
2023-01-28T22:36:15.324Z,6.30
2023-01-28T22:38:46.354Z,6.63
2023-01-28T22:41:18.936Z,6.17
2023-01-28T22:43:47.931Z,6.70
2023-01-28T22:46:16.900Z,7.87
2023-01-28T22:48:45.360Z,6.90
2023-01-28T22:51:17.324Z,6.70
2023-01-28T22:53:48.062Z,6.93
2023-01-28T22:56:19.514Z,7.00
2023-01-28T22:58:47.615Z,6.93
2023-01-28T23:01:18.264Z,6.30
2023-01-28T23:03:47.728Z,6.40
2023-01-28T23:06:17.381Z,7.27
2023-01-28T23:08:47.419Z,7.60
2023-01-28T23:11:25.157Z,7.93
2023-01-28T23:14:11.312Z,7.23
2023-01-28T23:16:56.879Z,7.97
2023-01-28T23:19:42.769Z,6.63
2023-01-28T23:22:34.339Z,7.73
2023-01-28T23:25:03.694Z,8.10
2023-01-28T23:27:31.706Z,8.07
2023-01-28T23:29:59.629Z,7.70
2023-01-28T23:32:27.799Z,7.87
2023-01-28T23:34:55.730Z,7.17
2023-01-28T23:37:23.661Z,7.83
2023-01-28T23:39:51.519Z,7.20
2023-01-28T23:42:23.483Z,6.83
2023-01-28T23:44:51.429Z,7.50
2023-01-28T23:47:19.696Z,7.13
2023-01-28T23:49:47.747Z,8.47
2023-01-28T23:52:15.664Z,8.90
2023-01-28T23:54:43.540Z,8.70
2023-01-28T23:57:11.505Z,8.13
2023-01-28T23:59:40.811Z,7.97
